createdAt,value
2022-11-15T00:00:00.236Z,7.4
2022-11-15T00:10:00.274Z,7.4
2022-11-15T00:20:00.250Z,7.5
2022-11-15T00:30:00.292Z,7.5
2022-11-15T00:40:00.237Z,7.4
2022-11-15T00:50:00.458Z,7.4
2022-11-15T01:00:00.229Z,7.3
2022-11-15T01:10:00.226Z,7.3
2022-11-15T01:20:00.325Z,7.3
2022-11-15T01:30:00.428Z,7.3
2022-11-15T01:40:00.271Z,7.3
2022-11-15T01:50:00.278Z,7.3
2022-11-15T02:00:00.259Z,7.3
2022-11-15T02:10:00.213Z,7.3
2022-11-15T02:20:00.257Z,7.3
2022-11-15T02:30:00.305Z,7.3
2022-11-15T02:40:00.232Z,7.3
2022-11-15T02:50:00.256Z,7.3
2022-11-15T03:00:00.238Z,7.3
2022-11-15T03:10:00.283Z,7.3
2022-11-15T03:20:00.285Z,7.3
2022-11-15T03:30:00.318Z,7.3
2022-11-15T03:40:00.338Z,7.3
2022-11-15T03:50:00.258Z,7.2
2022-11-15T04:00:00.253Z,7.1
2022-11-15T04:10:00.259Z,7.1
2022-11-15T04:20:00.249Z,7.0
2022-11-15T04:30:00.399Z,7.0
2022-11-15T04:40:00.283Z,7.0
2022-11-15T04:50:00.258Z,6.9
2022-11-15T05:00:00.285Z,6.8
2022-11-15T05:10:00.297Z,6.8
2022-11-15T05:20:00.267Z,6.7
2022-11-15T05:30:00.356Z,6.7
2022-11-15T05:40:00.288Z,6.7
2022-11-15T05:50:00.269Z,6.7
2022-11-15T06:00:00.267Z,6.7
2022-11-15T06:10:00.269Z,6.7
2022-11-15T09:00:00.301Z,7.1
2022-11-15T09:10:00.273Z,7.2
2022-11-15T09:20:00.270Z,7.3
2022-11-15T09:30:00.273Z,7.4
2022-11-15T09:40:00.283Z,7.5
2022-11-15T09:50:00.289Z,7.6
2022-11-15T10:00:07.819Z,7.7
2022-11-15T10:10:00.263Z,7.8
2022-11-15T10:20:05.194Z,7.8
2022-11-15T10:30:00.269Z,7.8
2022-11-15T10:40:00.385Z,7.9
2022-11-15T10:50:00.289Z,8.0
2022-11-15T11:00:00.271Z,8.0
2022-11-15T11:10:00.410Z,8.1
2022-11-15T11:20:00.285Z,8.2
2022-11-15T11:30:00.281Z,8.4
2022-11-15T11:40:00.240Z,8.4
2022-11-15T11:50:00.220Z,8.5
2022-11-15T12:00:00.241Z,8.6
2022-11-15T12:10:00.553Z,8.6
2022-11-15T12:20:00.240Z,8.7
2022-11-15T12:30:00.250Z,8.7
2022-11-15T12:40:03.641Z,8.8
2022-11-15T12:50:00.280Z,8.8
2022-11-15T13:00:00.249Z,8.7
2022-11-15T13:10:00.344Z,8.7
2022-11-15T13:20:00.648Z,8.7
2022-11-15T13:30:00.265Z,8.7
2022-11-15T13:40:00.287Z,8.7
2022-11-15T13:50:00.275Z,8.6
2022-11-15T14:00:00.253Z,8.5
2022-11-15T14:10:00.575Z,8.5
2022-11-15T14:20:00.284Z,8.5
2022-11-15T14:30:00.262Z,8.4
2022-11-15T14:40:00.277Z,8.4
2022-11-15T14:50:00.298Z,8.4
2022-11-15T15:00:00.330Z,8.3
2022-11-15T15:10:24.838Z,8.3
2022-11-15T15:20:00.264Z,8.3
2022-11-15T15:30:00.269Z,8.3
2022-11-15T15:40:00.266Z,8.3
2022-11-15T15:50:00.263Z,8.3
2022-11-15T16:00:00.262Z,8.2
2022-11-15T16:10:00.418Z,8.2
2022-11-15T16:20:00.445Z,8.1
2022-11-15T16:30:00.311Z,8.0
2022-11-15T16:40:01.182Z,8.0
2022-11-15T16:50:00.291Z,8.0
2022-11-15T17:00:00.276Z,8.0
2022-11-15T17:10:00.367Z,8.0
2022-11-15T17:20:00.300Z,8.0
2022-11-15T17:30:00.244Z,7.9
2022-11-15T17:40:00.278Z,7.9
2022-11-15T17:50:00.304Z,7.9
2022-11-15T18:00:00.270Z,7.9
2022-11-15T18:10:00.355Z,7.9
2022-11-15T18:20:00.289Z,7.8
2022-11-15T18:30:00.289Z,7.8
2022-11-15T18:40:00.277Z,7.8
2022-11-15T18:50:00.250Z,7.8
2022-11-15T19:00:00.254Z,7.8
2022-11-15T19:10:00.340Z,7.8
2022-11-15T19:20:00.310Z,7.8
2022-11-15T19:30:00.265Z,7.7
2022-11-15T19:40:00.270Z,7.7
2022-11-15T19:50:00.307Z,7.7
2022-11-15T20:00:04.428Z,7.7
2022-11-15T20:10:00.309Z,7.6
2022-11-15T20:20:00.262Z,7.6
2022-11-15T20:30:00.264Z,7.6
2022-11-15T20:40:00.267Z,7.6
2022-11-15T20:50:09.829Z,7.6
2022-11-15T21:00:04.535Z,7.6
2022-11-15T21:10:00.336Z,7.5
2022-11-15T21:20:00.236Z,7.5
2022-11-15T21:30:00.279Z,7.5
2022-11-15T21:40:00.314Z,7.5
2022-11-15T21:50:00.276Z,7.5
2022-11-15T22:00:00.256Z,7.5
2022-11-15T22:10:00.326Z,7.5
2022-11-15T22:20:11.454Z,7.4
2022-11-15T22:30:00.283Z,7.4
2022-11-15T22:40:00.250Z,7.4
2022-11-15T22:50:00.256Z,7.4
2022-11-15T23:00:00.347Z,7.4
2022-11-15T23:10:00.341Z,7.4
2022-11-15T23:20:07.398Z,7.4
2022-11-15T23:30:00.292Z,7.3
2022-11-15T23:40:00.277Z,7.3
2022-11-15T23:50:00.255Z,7.3
